Grayhound — 2FMM5 — position and weather

sailwx.info

Track history (hours):
 
Tides and Currents Weather Stations Pressure Air Temp Water Temp Dewpoint Dewpoint Depression Visibility Wind Speed Wind Dir Waves Ship Positions

Grayhound

Last reported at 2018-Oct-10 16:48 UTC. Time now 2019-Jan-21 17:43 UTC.
Position N 48°06' W 004°20'.
Warning: this ship's position is months out of date.

Type: Sailing vessel. MMSI: 235092485.

Date/timePositionNaut miles runAvg speedWind from/ knotsBaromVisibWave heightAir tempDewpointWater temp
2018-Oct-10 16:48N 48°06' W 004°20'0 0.1
2018-Oct-10 15:48N 48°06' W 004°20'0 0.0
2018-Oct-10 14:48N 48°06' W 004°20'0 0.0
2018-Oct-10 13:48N 48°06' W 004°20'0 0.0
2018-Oct-10 12:48N 48°06' W 004°20'0 0.0
2018-Oct-10 11:33N 48°06' W 004°20'0 0.0
2018-Oct-10 08:48N 48°06' W 004°20'0 0.0
2018-Oct-10 07:48N 48°06' W 004°20'0 0.0
2018-Oct-10 06:48N 48°06' W 004°20'0 0.0
2018-Oct-10 05:48N 48°06' W 004°20'0 0.0
2018-Oct-10 04:48N 48°06' W 004°20'0 0.0
2018-Oct-10 03:33N 48°06' W 004°20'0 0.0
2018-Oct-10 02:33N 48°06' W 004°20'0 0.0
2018-Oct-10 01:48N 48°06' W 004°20'0 0.0
2018-Oct-10 00:48N 48°06' W 004°20'0 0.0
2018-Oct-09 23:48N 48°06' W 004°20'0 0.0
2018-Oct-09 22:48N 48°06' W 004°20'0 0.0
2018-Oct-09 21:48N 48°06' W 004°20'0 0.0
2018-Oct-09 20:33N 48°06' W 004°20'0 0.0
2018-Oct-09 19:33N 48°06' W 004°20'0 0.0
2018-Oct-09 18:48N 48°06' W 004°20'0 0.0
2018-Oct-09 15:33N 48°06' W 004°20'0 0.0
2018-Oct-09 14:48N 48°06' W 004°20'0 0.0
2018-Oct-09 13:48N 48°06' W 004°20'0 0.0
2018-Oct-09 12:48N 48°06' W 004°20'0 0.0
2018-Oct-09 11:33N 48°06' W 004°20'0 0.0
2018-Oct-09 10:48N 48°06' W 004°20'0 0.0
2018-Oct-09 09:33N 48°06' W 004°20'0 0.0
2018-Oct-09 08:33N 48°06' W 004°20'0 0.0
2018-Oct-09 07:48N 48°06' W 004°20'0 0.0
2018-Oct-09 06:48N 48°06' W 004°20'0 0.0
2018-Oct-09 05:48N 48°06' W 004°20'0 0.0
2018-Oct-09 04:48N 48°06' W 004°20'0 0.0
2018-Oct-09 03:48N 48°06' W 004°20'0 0.0
2018-Oct-09 01:33N 48°06' W 004°20'0 0.0
2018-Oct-09 00:33N 48°06' W 004°20'0 0.0
2018-Oct-08 23:48N 48°06' W 004°20'0 0.0
2018-Oct-08 19:48N 48°06' W 004°20'0 0.0
2018-Oct-08 17:48N 48°06' W 004°20'0 0.0
2018-Oct-08 15:33N 48°06' W 004°20'0 0.0
2018-Oct-08 14:48N 48°06' W 004°20'0 0.2
2018-Oct-08 12:48N 48°06' W 004°20'0 0.0
2018-Oct-08 11:33N 48°06' W 004°20'0 0.0
2018-Oct-08 09:58N 48°06' W 004°20'3 3.3
2018-Oct-08 08:58N 48°07' W 004°24'4 4.1
2018-Oct-08 07:58N 48°09' W 004°30'4 3.8
2018-Oct-08 06:58N 48°10' W 004°35'4 4.0
2018-Oct-08 05:58N 48°13' W 004°40'2 4.4
2018-Oct-08 05:30N 48°14' W 004°42'3 4.6
2018-Oct-08 04:53N 48°17' W 004°44'  
Track history (hours):
 
Tides and Currents Weather Stations Pressure Air Temp Water Temp Dewpoint Dewpoint Depression Visibility Wind Speed Wind Dir Waves Ship Positions

Grayhound

Last reported at 2018-Oct-10 16:48 UTC. Time now 2019-Jan-21 17:43 UTC.
Position N 48°06' W 004°20'.
Warning: this ship's position is months out of date.

Type: Sailing vessel. MMSI: 235092485.

Date/timePositionNaut miles runAvg speedWind from/ knotsBaromVisibWave heightAir tempDewpointWater temp
2018-Oct-10 16:48N 48°06' W 004°20'0 0.1
2018-Oct-10 15:48N 48°06' W 004°20'0 0.0
2018-Oct-10 14:48N 48°06' W 004°20'0 0.0
2018-Oct-10 13:48N 48°06' W 004°20'0 0.0
2018-Oct-10 12:48N 48°06' W 004°20'0 0.0
2018-Oct-10 11:33N 48°06' W 004°20'0 0.0
2018-Oct-10 08:48N 48°06' W 004°20'0 0.0
2018-Oct-10 07:48N 48°06' W 004°20'0 0.0
2018-Oct-10 06:48N 48°06' W 004°20'0 0.0
2018-Oct-10 05:48N 48°06' W 004°20'0 0.0
2018-Oct-10 04:48N 48°06' W 004°20'0 0.0
2018-Oct-10 03:33N 48°06' W 004°20'0 0.0
2018-Oct-10 02:33N 48°06' W 004°20'0 0.0
2018-Oct-10 01:48N 48°06' W 004°20'0 0.0
2018-Oct-10 00:48N 48°06' W 004°20'0 0.0
2018-Oct-09 23:48N 48°06' W 004°20'0 0.0
2018-Oct-09 22:48N 48°06' W 004°20'0 0.0
2018-Oct-09 21:48N 48°06' W 004°20'0 0.0
2018-Oct-09 20:33N 48°06' W 004°20'0 0.0
2018-Oct-09 19:33N 48°06' W 004°20'0 0.0
2018-Oct-09 18:48N 48°06' W 004°20'0 0.0
2018-Oct-09 15:33N 48°06' W 004°20'0 0.0
2018-Oct-09 14:48N 48°06' W 004°20'0 0.0
2018-Oct-09 13:48N 48°06' W 004°20'0 0.0
2018-Oct-09 12:48N 48°06' W 004°20'0 0.0
2018-Oct-09 11:33N 48°06' W 004°20'0 0.0
2018-Oct-09 10:48N 48°06' W 004°20'0 0.0
2018-Oct-09 09:33N 48°06' W 004°20'0 0.0
2018-Oct-09 08:33N 48°06' W 004°20'0 0.0
2018-Oct-09 07:48N 48°06' W 004°20'0 0.0
2018-Oct-09 06:48N 48°06' W 004°20'0 0.0
2018-Oct-09 05:48N 48°06' W 004°20'0 0.0
2018-Oct-09 04:48N 48°06' W 004°20'0 0.0
2018-Oct-09 03:48N 48°06' W 004°20'0 0.0
2018-Oct-09 01:33N 48°06' W 004°20'0 0.0
2018-Oct-09 00:33N 48°06' W 004°20'0 0.0
2018-Oct-08 23:48N 48°06' W 004°20'0 0.0
2018-Oct-08 19:48N 48°06' W 004°20'0 0.0
2018-Oct-08 17:48N 48°06' W 004°20'0 0.0
2018-Oct-08 15:33N 48°06' W 004°20'0 0.0
2018-Oct-08 14:48N 48°06' W 004°20'0 0.2
2018-Oct-08 12:48N 48°06' W 004°20'0 0.0
2018-Oct-08 11:33N 48°06' W 004°20'0 0.0
2018-Oct-08 09:58N 48°06' W 004°20'3 3.3
2018-Oct-08 08:58N 48°07' W 004°24'4 4.1
2018-Oct-08 07:58N 48°09' W 004°30'4 3.8
2018-Oct-08 06:58N 48°10' W 004°35'4 4.0
2018-Oct-08 05:58N 48°13' W 004°40'2 4.4
2018-Oct-08 05:30N 48°14' W 004°42'3 4.6
2018-Oct-08 04:53N 48°17' W 004°44'  

Dump ship's entire track history